Time;durP1;ratioP1;P1;durP2;ratioP2;P2;SDS_P1;SDS_P2;PMS_P1;PMS_P2;Temp;Humidity;BMP_temperature;BMP_pressure;BME280_temperature;BME280_humidity;BME280_pressure;Samples;Min_cycle;Max_cycle;Signal;HPM_P1;HPM_P2
2020/12/02 00:01:57;;;;;;;2.83;2.10;;;21.10;45.00;;;;;;6268905;28;20032;-53
2020/12/02 00:05:01;;;;;;;2.70;1.90;;;21.10;45.10;;;;;;6268606;28;20249;-58
2020/12/02 00:08:26;;;;;;;3.63;2.13;;;21.10;45.10;;;;;;6268400;28;20056;-59
2020/12/02 00:11:28;;;;;;;3.58;2.42;;;21.00;44.90;;;;;;6271306;28;20483;-58
2020/12/02 00:14:30;;;;;;;2.53;2.00;;;21.00;44.90;;;;;;6278400;28;20086;-58
2020/12/02 00:17:30;;;;;;;3.25;2.17;;;21.00;44.80;;;;;;6269063;28;20049;-58
2020/12/02 00:20:32;;;;;;;2.50;1.90;;;21.00;44.80;;;;;;6267884;28;20058;-58
2020/12/02 00:23:33;;;;;;;3.17;2.20;;;21.00;44.80;;;;;;6268454;28;20025;-59
2020/12/02 00:26:33;;;;;;;2.75;1.95;;;21.00;44.80;;;;;;6267729;28;20028;-55
2020/12/02 00:29:34;;;;;;;3.03;2.35;;;21.00;44.90;;;;;;6268108;28;20479;-55
2020/12/02 00:32:41;;;;;;;2.55;1.90;;;21.00;44.80;;;;;;6268003;28;20025;-58
2020/12/02 00:35:42;;;;;;;2.70;2.10;;;21.00;45.00;;;;;;6267878;28;20044;-56
2020/12/02 00:38:43;;;;;;;3.55;2.25;;;21.00;45.00;;;;;;6267780;28;20530;-56
2020/12/02 00:41:47;;;;;;;3.03;2.20;;;21.00;45.00;;;;;;6267323;28;20029;-55
2020/12/02 00:44:48;;;;;;;2.55;2.08;;;21.00;45.60;;;;;;6267679;28;20025;-58
2020/12/02 00:47:50;;;;;;;2.72;1.92;;;21.00;45.10;;;;;;6266594;28;20056;-57
2020/12/02 00:50:52;;;;;;;3.00;2.05;;;21.00;45.10;;;;;;6267655;28;20023;-58
2020/12/02 00:53:52;;;;;;;3.97;2.60;;;21.00;45.00;;;;;;6267402;28;20162;-58
2020/12/02 00:56:53;;;;;;;2.35;1.80;;;20.90;44.90;;;;;;6266743;28;20399;-58
2020/12/02 00:59:56;;;;;;;2.90;2.10;;;20.90;44.90;;;;;;6267484;28;20036;-55
2020/12/02 01:03:05;;;;;;;3.13;2.47;;;21.00;45.20;;;;;;6266742;28;20437;-59
2020/12/02 01:06:08;;;;;;;3.17;2.42;;;20.90;45.00;;;;;;6267560;28;20506;-59
2020/12/02 01:09:09;;;;;;;3.65;2.33;;;20.90;44.90;;;;;;6266599;28;20399;-59
2020/12/02 01:12:15;;;;;;;2.40;2.00;;;20.90;44.90;;;;;;6267429;28;20025;-58
2020/12/02 01:15:20;;;;;;;3.72;2.10;;;20.90;44.90;;;;;;6279363;28;20024;-58
2020/12/02 01:18:22;;;;;;;;;;;20.90;44.80;;;;;;6292770;28;20358;-58
2020/12/02 01:21:37;;;;;;;2.83;2.15;;;20.90;44.80;;;;;;6291500;28;20278;-58
2020/12/02 01:24:57;;;;;;;2.93;2.20;;;20.90;44.80;;;;;;6292288;28;20476;-56
2020/12/02 01:28:05;;;;;;;4.20;2.20;;;20.90;44.90;;;;;;6291053;28;20032;-56
2020/12/02 01:31:06;;;;;;;2.45;2.05;;;20.90;44.90;;;;;;6292134;28;20013;-59
2020/12/02 01:34:08;;;;;;;3.00;2.28;;;20.80;45.00;;;;;;6291457;28;20518;-58
2020/12/02 01:37:35;;;;;;;3.33;2.35;;;20.80;44.90;;;;;;6292645;28;20090;-54
2020/12/02 01:40:35;;;;;;;2.53;2.05;;;20.80;44.90;;;;;;6290945;28;20103;-59
2020/12/02 01:43:37;;;;;;;4.55;2.55;;;20.80;44.90;;;;;;6291459;28;20032;-59
2020/12/02 01:46:55;;;;;;;3.20;2.22;;;20.80;45.10;;;;;;6291262;28;20033;-59
2020/12/02 01:50:29;;;;;;;3.03;2.00;;;20.80;45.00;;;;;;6291518;28;20596;-55
2020/12/02 01:53:38;;;;;;;6.78;2.45;;;20.80;44.90;;;;;;6275340;28;20036;-57
2020/12/02 01:56:52;;;;;;;3.75;2.55;;;20.80;45.10;;;;;;6291435;28;20132;-56
2020/12/02 02:00:13;;;;;;;3.30;2.30;;;20.80;44.90;;;;;;6296313;28;20024;-59
2020/12/02 02:03:15;;;;;;;5.60;2.40;;;20.80;44.90;;;;;;6296289;28;20032;-58
2020/12/02 02:06:22;;;;;;;2.55;2.15;;;20.80;45.00;;;;;;6296221;28;20099;-58
2020/12/02 02:09:22;;;;;;;2.83;2.30;;;20.80;45.00;;;;;;6296093;28;20225;-59
2020/12/02 02:12:32;;;;;;;4.05;2.67;;;20.80;45.00;;;;;;6303387;28;20340;-58
2020/12/02 02:15:44;;;;;;;4.07;2.40;;;20.80;44.90;;;;;;6303197;28;20034;-58
2020/12/02 02:18:45;;;;;;;4.50;2.38;;;20.80;45.00;;;;;;6301662;28;20497;-52
2020/12/02 02:21:49;;;;;;;2.90;2.08;;;20.80;45.10;;;;;;6296899;28;20024;-55
2020/12/02 02:24:50;;;;;;;2.85;2.28;;;20.70;45.00;;;;;;6296412;28;20105;-55
2020/12/02 02:27:52;;;;;;;3.55;2.50;;;20.70;45.10;;;;;;6296540;28;20076;-55
2020/12/02 02:30:52;;;;;;;3.03;2.10;;;20.70;44.90;;;;;;6281217;28;20025;-56
2020/12/02 02:33:54;;;;;;;3.35;2.47;;;20.70;45.00;;;;;;6271305;28;20032;-56
2020/12/02 02:36:55;;;;;;;3.85;2.30;;;20.70;45.10;;;;;;6270379;28;20372;-55
2020/12/02 02:39:59;;;;;;;2.72;2.10;;;20.70;45.10;;;;;;6270676;28;20059;-56
2020/12/02 02:43:04;;;;;;;3.78;2.53;;;20.70;45.00;;;;;;6270981;28;20025;-57
2020/12/02 02:46:05;;;;;;;2.80;2.00;;;20.70;45.10;;;;;;6270677;28;20106;-57
2020/12/02 02:49:07;;;;;;;3.30;2.45;;;20.70;45.10;;;;;;6270291;28;20107;-55
2020/12/02 02:52:08;;;;;;;3.47;2.20;;;20.70;45.10;;;;;;6270040;28;20028;-56
2020/12/02 02:55:12;;;;;;;3.10;2.20;;;20.60;45.10;;;;;;6270755;28;20036;-60
2020/12/02 02:58:13;;;;;;;3.20;2.15;;;20.70;45.10;;;;;;6269911;28;20040;-59
2020/12/02 03:01:13;;;;;;;3.83;2.33;;;20.70;45.10;;;;;;6270372;28;20033;-57
2020/12/02 03:04:14;;;;;;;3.05;2.20;;;20.60;45.10;;;;;;6270813;28;20482;-57
2020/12/02 03:07:16;;;;;;;3.30;2.20;;;20.60;45.10;;;;;;6270136;28;20095;-59
2020/12/02 03:10:22;;;;;;;3.58;2.38;;;20.60;45.10;;;;;;6266998;28;20055;-57
2020/12/02 03:13:37;;;;;;;3.42;2.38;;;20.60;45.20;;;;;;6270131;28;20033;-59
2020/12/02 03:16:51;;;;;;;3.13;2.22;;;20.60;45.10;;;;;;6269870;28;20333;-58
2020/12/02 03:19:57;;;;;;;2.70;2.20;;;20.60;45.00;;;;;;6269642;28;20036;-56
2020/12/02 03:22:57;;;;;;;3.13;2.47;;;20.60;45.10;;;;;;6292137;28;20038;-57
2020/12/02 03:25:57;;;;;;;3.92;2.50;;;20.60;45.10;;;;;;6294350;28;20100;-58
2020/12/02 03:28:58;;;;;;;4.20;2.33;;;20.60;45.10;;;;;;6310645;22;20050;-58
2020/12/02 03:31:59;;;;;;;3.28;2.42;;;20.60;45.10;;;;;;6301355;28;20046;-58
2020/12/02 03:34:59;;;;;;;3.47;2.40;;;20.60;45.10;;;;;;6300914;28;20046;-57
2020/12/02 03:38:00;;;;;;;2.72;2.28;;;20.60;45.10;;;;;;6300711;28;20081;-58
2020/12/02 03:41:00;;;;;;;3.55;2.83;;;20.60;45.10;;;;;;6300781;28;20024;-58
2020/12/02 03:44:01;;;;;;;3.20;2.45;;;20.60;45.10;;;;;;6301555;28;20042;-55
2020/12/02 03:47:01;;;;;;;2.70;2.20;;;20.60;45.10;;;;;;6300795;28;20028;-59
2020/12/02 03:50:05;;;;;;;3.72;2.70;;;20.60;45.10;;;;;;6300366;28;20024;-58
2020/12/02 03:53:06;;;;;;;4.05;2.40;;;20.60;45.10;;;;;;6301174;28;20016;-58
2020/12/02 03:56:07;;;;;;;3.50;2.30;;;20.60;45.10;;;;;;6300739;28;20020;-57
2020/12/02 03:59:07;;;;;;;3.15;2.10;;;20.60;45.20;;;;;;6300500;28;20085;-58
2020/12/02 04:02:08;;;;;;;3.75;2.60;;;20.50;45.10;;;;;;6300041;28;20036;-57
2020/12/02 04:05:09;;;;;;;3.15;2.33;;;20.50;45.10;;;;;;6300205;28;20035;-58
2020/12/02 04:08:09;;;;;;;4.40;2.95;;;20.50;45.10;;;;;;6300190;28;20456;-58
2020/12/02 04:11:11;;;;;;;3.50;2.58;;;20.50;45.20;;;;;;6300044;28;20028;-59
2020/12/02 04:14:12;;;;;;;3.63;2.58;;;20.50;45.20;;;;;;6300014;28;20119;-59
2020/12/02 04:17:12;;;;;;;2.80;2.13;;;20.50;45.10;;;;;;6299995;28;20024;-58
2020/12/02 04:20:17;;;;;;;3.80;2.70;;;20.50;45.10;;;;;;6299352;28;20058;-58
2020/12/02 04:23:18;;;;;;;3.00;2.13;;;20.50;45.20;;;;;;6299845;28;20032;-57
2020/12/02 04:26:19;;;;;;;3.83;2.45;;;20.50;45.30;;;;;;6291822;28;20127;-57
2020/12/02 04:29:19;;;;;;;3.33;2.20;;;20.50;45.20;;;;;;6292304;28;20484;-57
2020/12/02 04:32:20;;;;;;;4.80;2.95;;;20.50;45.30;;;;;;6291750;28;20020;-58
2020/12/02 04:35:21;;;;;;;3.58;2.30;;;20.50;45.30;;;;;;6291289;28;20040;-58
2020/12/02 04:38:21;;;;;;;4.32;2.75;;;20.50;45.20;;;;;;6292178;28;20067;-58
2020/12/02 04:41:22;;;;;;;3.85;2.38;;;20.40;45.30;;;;;;6290994;28;20082;-56
2020/12/02 04:44:23;;;;;;;3.72;2.88;;;20.40;45.30;;;;;;6291909;28;20020;-59
2020/12/02 04:47:36;;;;;;;4.32;2.83;;;20.40;45.20;;;;;;6291759;28;20370;-56
2020/12/02 04:50:36;;;;;;;3.60;2.58;;;20.40;45.30;;;;;;6291341;28;20025;-58
2020/12/02 04:53:42;;;;;;;3.17;2.58;;;20.40;45.20;;;;;;6291789;28;20459;-58
2020/12/02 04:56:46;;;;;;;3.10;2.30;;;20.40;45.30;;;;;;6291864;28;20326;-57
2020/12/02 04:59:47;;;;;;;3.92;2.40;;;20.40;45.20;;;;;;6291490;28;20063;-56
2020/12/02 05:02:48;;;;;;;3.30;2.60;;;20.40;45.20;;;;;;6290954;28;20531;-58
2020/12/02 05:06:00;;;;;;;3.60;2.45;;;20.40;45.30;;;;;;6318091;28;20035;-57
2020/12/02 05:09:19;;;;;;;3.13;2.53;;;20.40;45.20;;;;;;6324336;28;20012;-57
2020/12/02 05:12:32;;;;;;;3.35;2.63;;;20.40;45.30;;;;;;6324680;28;20019;-59
2020/12/02 05:15:34;;;;;;;3.95;2.78;;;20.40;45.30;;;;;;6324502;28;20043;-58
2020/12/02 05:18:34;;;;;;;4.22;2.80;;;20.40;45.30;;;;;;6324435;28;20028;-58
2020/12/02 05:21:43;;;;;;;3.42;2.60;;;20.40;45.40;;;;;;6324081;28;20356;-59
2020/12/02 05:24:50;;;;;;;3.22;2.53;;;20.40;45.20;;;;;;6324070;28;20418;-59
2020/12/02 05:28:03;;;;;;;4.68;2.72;;;20.40;45.30;;;;;;6323985;28;20110;-57
2020/12/02 05:31:26;;;;;;;4.35;3.03;;;20.40;45.20;;;;;;6323868;28;20121;-58
2020/12/02 05:34:30;;;;;;;4.18;2.88;;;20.40;45.30;;;;;;6323482;28;20015;-59
2020/12/02 05:37:37;;;;;;;3.55;2.80;;;20.40;45.30;;;;;;6323695;28;20031;-59
2020/12/02 05:40:38;;;;;;;4.65;2.72;;;20.40;45.30;;;;;;6323871;28;20034;-58
2020/12/02 05:43:56;;;;;;;4.10;3.05;;;20.40;45.30;;;;;;6297245;28;20025;-58
2020/12/02 05:47:00;;;;;;;3.88;3.08;;;20.40;45.30;;;;;;6290500;28;20530;-59
2020/12/02 05:50:05;;;;;;;3.92;2.67;;;20.40;45.30;;;;;;6291275;28;20337;-59
2020/12/02 05:53:33;;;;;;;5.38;3.50;;;20.40;45.20;;;;;;6290619;28;20024;-58
2020/12/02 05:56:34;;;;;;;5.05;3.15;;;20.40;45.20;;;;;;6290102;28;20143;-57
2020/12/02 05:59:34;;;;;;;4.25;2.95;;;20.40;45.30;;;;;;6290343;28;20241;-56
2020/12/02 06:02:37;;;;;;;3.53;2.90;;;20.40;45.30;;;;;;6289727;28;20029;-58
2020/12/02 06:05:38;;;;;;;4.07;2.83;;;20.40;45.30;;;;;;6289635;28;20106;-59
2020/12/02 06:08:48;;;;;;;5.47;3.30;;;20.40;45.30;;;;;;6290078;28;20060;-59
2020/12/02 06:11:55;;;;;;;4.45;3.20;;;20.50;45.60;;;;;;6289603;28;20033;-57
2020/12/02 06:14:56;;;;;;;3.92;2.85;;;20.60;46.40;;;;;;6289615;28;20021;-56
2020/12/02 06:18:36;;;;;;;4.80;3.20;;;20.70;46.40;;;;;;6290049;28;20120;-60
2020/12/02 06:21:41;;;;;;;12.65;6.82;;;20.70;44.50;;;;;;6218433;28;20548;-59
2020/12/02 06:24:47;;;;;;;15.57;8.02;;;20.60;44.50;;;;;;6221160;28;20132;-61
2020/12/02 06:27:47;;;;;;;31.40;10.60;;;20.80;44.30;;;;;;6298129;28;20066;-55
2020/12/02 06:31:06;;;;;;;16.45;7.40;;;21.00;42.10;;;;;;6297082;28;20369;-57
2020/12/02 06:34:22;;;;;;;15.35;6.30;;;21.10;43.20;;;;;;6297507;28;20031;-53
2020/12/02 06:37:26;;;;;;;11.27;5.85;;;21.20;43.30;;;;;;6273650;28;20020;-51
2020/12/02 06:40:27;;;;;;;14.68;6.25;;;21.20;44.20;;;;;;6277085;28;20021;-56
2020/12/02 06:43:33;;;;;;;10.95;5.32;;;21.30;44.30;;;;;;6290107;28;20036;-57
2020/12/02 06:47:02;;;;;;;9.80;5.03;;;21.30;44.30;;;;;;6312309;28;20020;-57
2020/12/02 06:50:11;;;;;;;11.90;5.80;;;21.40;45.20;;;;;;6300802;28;20031;-56
2020/12/02 06:53:11;;;;;;;11.80;4.88;;;21.50;44.50;;;;;;6301549;28;20024;-57
2020/12/02 06:56:17;;;;;;;10.60;4.88;;;21.50;44.50;;;;;;6302095;28;20101;-56
2020/12/02 06:59:17;;;;;;;9.57;5.13;;;21.60;44.40;;;;;;6299860;28;20130;-59
2020/12/02 07:02:41;;;;;;;10.88;4.38;;;21.60;44.60;;;;;;6297619;28;20025;-57
2020/12/02 07:05:44;;;;;;;10.68;4.70;;;21.60;44.50;;;;;;6299330;28;20028;-60
2020/12/02 07:08:48;;;;;;;8.10;4.78;;;21.70;44.70;;;;;;6302806;28;20028;-59
2020/12/02 07:11:55;;;;;;;16.20;5.43;;;21.70;44.60;;;;;;6294538;28;20027;-57
2020/12/02 07:15:00;;;;;;;11.73;4.72;;;21.70;44.70;;;;;;6313144;28;20479;-55
2020/12/02 07:18:20;;;;;;;12.20;4.55;;;21.70;44.80;;;;;;6278335;28;20122;-57
2020/12/02 07:21:51;;;;;;;44.67;6.75;;;21.70;45.00;;;;;;6289204;28;20099;-54
2020/12/02 07:24:59;;;;;;;54.72;8.00;;;21.80;45.10;;;;;;6268649;28;20395;-55
2020/12/02 07:27:59;;;;;;;30.63;5.22;;;21.80;45.30;;;;;;6277454;28;20028;-55
2020/12/02 07:31:16;;;;;;;26.30;5.40;;;21.80;45.40;;;;;;6282815;28;20094;-56
2020/12/02 07:34:27;;;;;;;27.00;5.20;;;21.80;45.70;;;;;;6302501;28;20082;-59
2020/12/02 07:37:28;;;;;;;12.43;4.47;;;21.70;45.40;;;;;;6310890;28;20028;-53
2020/12/02 07:40:33;;;;;;;12.85;4.82;;;21.70;45.30;;;;;;6327395;28;20070;-55
2020/12/02 07:43:34;;;;;;;11.43;4.53;;;21.70;45.30;;;;;;6328573;28;20123;-55
2020/12/02 07:46:35;;;;;;;19.40;4.55;;;21.70;45.40;;;;;;6327611;28;20388;-53
2020/12/02 07:49:42;;;;;;;37.17;5.97;;;21.70;46.00;;;;;;6327597;28;20027;-51
2020/12/02 07:52:47;;;;;;;25.30;5.68;;;21.80;45.30;;;;;;6327759;28;20047;-57
2020/12/02 07:55:49;;;;;;;35.70;6.15;;;21.80;45.10;;;;;;6327742;28;20027;-54
2020/12/02 07:58:51;;;;;;;28.83;5.57;;;21.80;45.40;;;;;;6327458;28;20049;-55
2020/12/02 08:01:58;;;;;;;47.03;6.57;;;21.80;45.20;;;;;;6327618;28;20028;-57
2020/12/02 08:04:59;;;;;;;40.25;5.90;;;21.90;45.30;;;;;;6307314;28;20017;-57
2020/12/02 08:08:00;;;;;;;31.02;5.82;;;21.90;45.40;;;;;;6293151;28;20028;-54
2020/12/02 08:11:14;;;;;;;21.30;4.55;;;21.90;45.20;;;;;;6294609;28;20116;-54
2020/12/02 08:14:22;;;;;;;11.20;4.65;;;21.80;45.20;;;;;;6294299;28;20035;-53
2020/12/02 08:17:24;;;;;;;13.45;4.68;;;21.80;45.20;;;;;;6302053;28;20252;-59
2020/12/02 08:20:31;;;;;;;14.77;4.90;;;21.80;45.20;;;;;;6301460;28;20036;-58
2020/12/02 08:23:36;;;;;;;15.98;4.80;;;21.80;45.20;;;;;;6301810;28;20028;-57
2020/12/02 08:26:37;;;;;;;15.70;5.10;;;21.80;45.30;;;;;;6301753;28;20077;-57
2020/12/02 08:29:38;;;;;;;21.40;5.00;;;21.80;45.20;;;;;;6301515;28;20032;-55
2020/12/02 08:32:48;;;;;;;13.20;4.85;;;21.80;45.40;;;;;;6301336;28;20028;-56
2020/12/02 08:35:50;;;;;;;11.73;4.43;;;21.80;45.20;;;;;;6301263;28;20491;-58
2020/12/02 08:38:51;;;;;;;13.55;4.85;;;21.80;45.10;;;;;;6301103;28;20035;-54
2020/12/02 08:41:52;;;;;;;27.05;5.13;;;21.80;45.00;;;;;;6300379;28;20430;-55
2020/12/02 08:45:11;;;;;;;12.38;4.97;;;21.80;45.00;;;;;;6301610;28;20073;-57
2020/12/02 08:48:12;;;;;;;13.40;5.25;;;21.80;45.00;;;;;;6289037;28;20485;-52
2020/12/02 08:51:16;;;;;;;18.02;5.05;;;21.80;45.10;;;;;;6275768;28;20029;-56
2020/12/02 08:54:18;;;;;;;20.45;5.60;;;21.80;45.00;;;;;;6296845;28;20110;-57
2020/12/02 08:57:18;;;;;;;44.30;6.43;;;21.90;45.30;;;;;;6301555;28;20047;-54
2020/12/02 09:00:21;;;;;;;46.90;12.32;;;21.90;44.90;;;;;;6300454;28;20395;-54
2020/12/02 09:03:24;;;;;;;44.55;9.82;;;21.60;43.50;;;;;;6301088;28;20069;-59
2020/12/02 09:06:25;;;;;;;47.78;11.20;;;21.60;44.00;;;;;;6301075;28;20123;-52
2020/12/02 09:09:25;;;;;;;36.15;12.05;;;21.70;43.80;;;;;;6300357;28;20042;-52
2020/12/02 09:12:26;;;;;;;44.92;11.07;;;21.70;43.80;;;;;;6301159;28;20020;-53
2020/12/02 09:15:27;;;;;;;34.55;10.27;;;21.70;43.50;;;;;;6319427;28;20028;-57
2020/12/02 09:18:28;;;;;;;30.20;8.93;;;21.80;43.90;;;;;;6301401;28;20573;-56
2020/12/02 09:21:29;;;;;;;29.15;9.32;;;21.80;43.90;;;;;;6300951;28;20028;-53
2020/12/02 09:24:29;;;;;;;31.15;8.68;;;21.80;44.10;;;;;;6301149;28;20035;-54
2020/12/02 09:27:32;;;;;;;45.33;9.43;;;21.80;44.20;;;;;;6300910;28;20048;-56
2020/12/02 09:30:32;;;;;;;27.48;8.18;;;21.80;44.40;;;;;;6300320;28;20028;-57
2020/12/02 09:33:33;;;;;;;43.80;13.13;;;21.80;44.40;;;;;;6312361;22;20083;-57
2020/12/02 09:36:35;;;;;;;23.38;10.02;;;21.60;43.30;;;;;;6275487;28;20041;-58
2020/12/02 09:39:35;;;;;;;28.85;10.40;;;21.70;43.80;;;;;;6292296;28;20054;-59
2020/12/02 09:43:18;;;;;;;22.48;9.25;;;21.80;43.50;;;;;;6300699;28;20048;-58
2020/12/02 09:46:20;;;;;;;29.25;10.40;;;21.80;43.60;;;;;;6242386;28;20036;-52
2020/12/02 09:49:21;;;;;;;27.45;10.82;;;21.70;43.70;;;;;;6277352;28;20031;-57
2020/12/02 09:52:36;;;;;;;23.30;12.48;;;21.60;43.20;;;;;;6298792;28;20329;-58
2020/12/02 09:55:37;;;;;;;25.92;11.00;;;21.50;43.90;;;;;;6292451;28;20392;-58
2020/12/02 09:58:38;;;;;;;30.95;11.45;;;21.50;44.10;;;;;;6291783;28;20044;-55
2020/12/02 10:01:51;;;;;;;19.77;10.52;;;21.50;44.20;;;;;;6292012;28;20024;-59
2020/12/02 10:05:33;;;;;;;19.13;9.98;;;21.50;44.00;;;;;;6300248;28;20028;-58
2020/12/02 10:09:06;;;;;;;17.20;9.52;;;21.50;44.20;;;;;;6284762;28;20276;-58
2020/12/02 10:12:41;;;;;;;23.38;9.73;;;21.50;44.30;;;;;;6280115;28;20507;-56
2020/12/02 10:15:50;;;;;;;17.65;9.48;;;21.50;44.30;;;;;;6296191;28;20483;-58
2020/12/02 10:19:18;;;;;;;17.60;8.50;;;21.50;44.30;;;;;;6296579;28;20488;-54
2020/12/02 10:22:35;;;;;;;18.38;8.98;;;21.60;44.50;;;;;;6297955;28;20028;-56
2020/12/02 10:26:10;;;;;;;14.80;8.15;;;21.60;44.40;;;;;;6296091;28;20024;-57
2020/12/02 10:29:48;;;;;;;19.52;8.02;;;21.60;44.40;;;;;;6302446;28;20023;-58
2020/12/02 10:33:08;;;;;;;13.52;7.82;;;21.60;44.40;;;;;;6304211;28;20020;-58
2020/12/02 10:36:09;;;;;;;16.92;8.48;;;21.60;44.40;;;;;;6295818;28;20033;-55
2020/12/02 10:39:15;;;;;;;13.23;7.93;;;21.60;44.30;;;;;;6296205;28;20397;-55
2020/12/02 10:42:41;;;;;;;13.60;7.95;;;21.60;44.30;;;;;;6279188;28;20025;-56
2020/12/02 10:45:47;;;;;;;15.65;8.60;;;21.60;44.30;;;;;;6295569;28;20039;-59
2020/12/02 10:48:59;;;;;;;12.93;7.18;;;21.60;44.30;;;;;;6321874;28;20021;-58
2020/12/02 10:52:02;;;;;;;12.35;7.70;;;21.60;44.30;;;;;;6253996;28;20435;-57
2020/12/02 10:55:03;;;;;;;13.40;7.30;;;21.60;44.30;;;;;;6254624;28;20121;-54
2020/12/02 10:58:20;;;;;;;11.23;7.40;;;21.60;44.30;;;;;;6254108;28;20452;-54
2020/12/02 11:01:22;;;;;;;12.00;7.40;;;21.60;44.30;;;;;;6254028;28;20097;-54
2020/12/02 11:04:23;;;;;;;12.25;8.10;;;21.60;44.30;;;;;;6258407;28;20048;-58
2020/12/02 11:07:39;;;;;;;12.50;7.93;;;21.70;44.40;;;;;;6303701;28;20076;-59
2020/12/02 11:11:11;;;;;;;13.48;7.80;;;21.70;44.40;;;;;;6294782;28;20362;-59
2020/12/02 11:14:18;;;;;;;13.05;8.02;;;21.70;44.30;;;;;;6278133;28;20476;-57
2020/12/02 11:17:48;;;;;;;10.30;7.22;;;21.70;44.30;;;;;;6303289;28;20035;-58
2020/12/02 11:21:01;;;;;;;11.50;7.25;;;21.70;44.30;;;;;;6294393;28;20024;-56
2020/12/02 11:24:22;;;;;;;15.52;7.53;;;21.70;44.40;;;;;;6294839;28;20495;-58
2020/12/02 11:27:22;;;;;;;9.80;6.75;;;21.70;44.30;;;;;;6303492;28;20043;-58
2020/12/02 11:30:30;;;;;;;12.77;7.35;;;21.70;44.40;;;;;;6301868;28;20020;-59
2020/12/02 11:33:55;;;;;;;10.93;7.22;;;21.70;44.30;;;;;;6303320;28;20024;-58
2020/12/02 11:37:01;;;;;;;12.65;7.70;;;21.70;44.30;;;;;;6294441;28;20039;-58
2020/12/02 11:40:11;;;;;;;10.45;7.38;;;21.70;44.40;;;;;;6294098;28;20025;-54
2020/12/02 11:43:25;;;;;;;10.95;7.28;;;21.70;44.40;;;;;;6278081;28;20069;-56
2020/12/02 11:46:27;;;;;;;10.45;6.82;;;21.70;44.40;;;;;;6290405;28;20111;-57
2020/12/02 11:49:35;;;;;;;11.77;6.88;;;21.70;44.40;;;;;;6294781;28;20103;-51
2020/12/02 11:53:05;;;;;;;13.18;7.22;;;21.70;44.50;;;;;;6278271;28;20032;-54
2020/12/02 11:56:08;;;;;;;10.57;6.63;;;21.70;44.50;;;;;;6267553;28;20449;-55
2020/12/02 11:59:15;;;;;;;10.75;6.78;;;21.70;44.50;;;;;;6302913;28;20028;-58
2020/12/02 12:02:41;;;;;;;12.18;7.43;;;21.70;44.60;;;;;;6301827;28;20036;-60
2020/12/02 12:06:00;;;;;;;20.10;7.97;;;21.70;44.60;;;;;;6267215;28;20032;-58
2020/12/02 12:09:28;;;;;;;14.45;7.25;;;21.60;43.90;;;;;;6282945;28;20383;-54
2020/12/02 12:12:34;;;;;;;11.48;7.82;;;21.60;44.40;;;;;;6279248;28;20040;-55
2020/12/02 12:15:43;;;;;;;20.15;10.02;;;21.60;44.10;;;;;;6278048;28;20028;-50
2020/12/02 12:18:57;;;;;;;19.00;9.32;;;21.60;43.80;;;;;;6299946;28;20032;-49
2020/12/02 12:22:07;;;;;;;18.63;9.45;;;21.70;43.60;;;;;;6291844;28;20032;-53
2020/12/02 12:25:13;;;;;;;19.67;9.73;;;21.70;43.10;;;;;;6292087;28;20599;-54
2020/12/02 12:28:18;;;;;;;20.23;10.02;;;21.80;43.00;;;;;;6294489;28;20406;-47
2020/12/02 12:31:31;;;;;;;14.98;8.88;;;21.90;43.30;;;;;;6297699;28;20493;-55
2020/12/02 12:34:38;;;;;;;16.08;8.55;;;22.00;43.20;;;;;;6288523;28;20033;-56
2020/12/02 12:37:54;;;;;;;16.85;8.13;;;22.10;43.40;;;;;;6281523;28;20052;-60
2020/12/02 12:41:03;;;;;;;15.43;8.35;;;22.10;43.40;;;;;;6257754;28;20028;-51
2020/12/02 12:44:29;;;;;;;16.80;8.13;;;22.00;43.40;;;;;;6267768;28;20017;-51
2020/12/02 12:47:33;;;;;;;17.50;8.27;;;22.00;43.90;;;;;;6273633;28;20107;-52
2020/12/02 12:50:34;;;;;;;11.73;7.53;;;22.00;43.70;;;;;;6290830;28;20465;-48
2020/12/02 12:53:35;;;;;;;12.10;7.72;;;22.10;43.60;;;;;;6292343;28;20032;-50
2020/12/02 12:56:36;;;;;;;14.13;7.78;;;22.70;42.60;;;;;;6274508;28;20091;-58
2020/12/02 12:59:36;;;;;;;11.68;7.70;;;22.50;42.60;;;;;;6285930;28;20024;-50
2020/12/02 13:02:37;;;;;;;14.52;7.50;;;22.90;42.20;;;;;;6277175;28;20507;-51
2020/12/02 13:05:38;;;;;;;11.23;7.03;;;23.40;41.10;;;;;;6287104;28;20052;-49
2020/12/02 13:09:25;;;;;;;11.38;7.18;;;23.10;41.50;;;;;;6296231;28;20472;-49
2020/12/02 13:12:32;;;;;;;9.90;6.82;;;22.60;42.40;;;;;;6285635;28;20094;-49
2020/12/02 13:15:47;;;;;;;9.70;6.55;;;22.40;43.00;;;;;;6284125;28;20028;-47
2020/12/02 13:18:54;;;;;;;;;;;22.40;43.20;;;;;;6288504;28;20035;-53
2020/12/02 13:21:59;;;;;;;9.55;6.50;;;22.30;43.10;;;;;;6294823;28;20290;-48
2020/12/02 13:25:04;;;;;;;12.18;6.90;;;22.40;43.20;;;;;;6298367;28;20035;-49
2020/12/02 13:28:18;;;;;;;9.00;6.22;;;22.50;43.10;;;;;;6298760;28;20036;-54
2020/12/02 13:31:23;;;;;;;9.60;6.32;;;23.00;41.80;;;;;;6298086;28;20377;-56
2020/12/02 13:34:24;;;;;;;11.40;7.15;;;23.30;41.50;;;;;;6287646;28;20124;-50
2020/12/02 13:37:24;;;;;;;12.95;6.75;;;23.50;41.10;;;;;;6294009;28;20472;-56
2020/12/02 13:40:25;;;;;;;9.63;6.47;;;23.50;41.10;;;;;;6315611;28;20056;-55
2020/12/02 13:43:29;;;;;;;8.52;5.75;;;23.50;40.90;;;;;;6284768;28;20070;-53
2020/12/02 13:46:30;;;;;;;16.73;5.95;;;23.60;40.80;;;;;;6293558;28;20024;-50
2020/12/02 13:49:31;;;;;;;11.98;6.03;;;23.60;40.70;;;;;;6311150;28;20117;-54
2020/12/02 13:52:40;;;;;;;9.85;6.13;;;23.60;40.80;;;;;;6293466;28;20021;-58
2020/12/02 13:55:54;;;;;;;13.10;6.15;;;23.60;40.90;;;;;;6295497;28;20063;-56
2020/12/02 13:59:20;;;;;;;9.13;5.55;;;23.60;40.90;;;;;;6302042;28;20023;-54
2020/12/02 14:02:42;;;;;;;9.65;6.35;;;23.70;40.70;;;;;;6294090;28;20035;-49
2020/12/02 14:05:48;;;;;;;11.73;6.20;;;23.70;40.70;;;;;;6303593;28;20322;-57
2020/12/02 14:08:49;;;;;;;8.25;5.32;;;23.60;40.90;;;;;;6301990;28;20024;-58
2020/12/02 14:11:54;;;;;;;8.15;5.35;;;23.60;40.90;;;;;;6300784;28;20028;-57
2020/12/02 14:14:56;;;;;;;8.48;5.93;;;23.60;40.80;;;;;;6299102;28;20025;-55
2020/12/02 14:17:57;;;;;;;8.88;5.90;;;23.60;40.90;;;;;;6277308;28;20104;-59
2020/12/02 14:20:57;;;;;;;8.23;5.65;;;23.60;41.20;;;;;;6293281;28;20024;-58
2020/12/02 14:23:58;;;;;;;12.70;5.88;;;23.70;41.00;;;;;;6291234;28;20023;-57
2020/12/02 14:26:59;;;;;;;7.15;5.32;;;23.90;40.20;;;;;;6302546;28;20125;-52
2020/12/02 14:30:04;;;;;;;8.20;5.35;;;23.90;40.40;;;;;;6302158;28;20024;-56
2020/12/02 14:33:09;;;;;;;16.48;5.85;;;23.80;40.50;;;;;;6301206;28;20127;-53
2020/12/02 14:36:09;;;;;;;9.47;5.40;;;23.60;40.80;;;;;;6277582;28;20060;-54
2020/12/02 14:39:10;;;;;;;9.18;5.03;;;23.30;41.60;;;;;;6288937;28;20107;-53
2020/12/02 14:42:13;;;;;;;11.50;5.45;;;23.30;41.40;;;;;;6294342;28;20021;-54
2020/12/02 14:45:14;;;;;;;14.63;6.28;;;23.30;41.40;;;;;;6287437;28;20021;-57
2020/12/02 14:48:14;;;;;;;20.65;5.70;;;23.10;41.90;;;;;;6282612;28;20027;-56
2020/12/02 14:51:16;;;;;;;9.13;5.53;;;22.90;42.20;;;;;;6293477;28;20028;-55
2020/12/02 14:54:18;;;;;;;14.20;5.75;;;22.80;42.40;;;;;;6304030;28;20046;-55
2020/12/02 14:57:50;;;;;;;17.58;5.95;;;22.80;42.90;;;;;;6293341;28;20024;-59
2020/12/02 15:01:05;;;;;;;12.52;5.45;;;23.00;42.30;;;;;;6293311;28;20074;-58
2020/12/02 15:04:08;;;;;;;15.48;6.18;;;23.00;42.20;;;;;;6301319;28;20051;-60
2020/12/02 15:07:15;;;;;;;16.58;5.32;;;23.00;42.20;;;;;;6299779;28;20024;-58
2020/12/02 15:10:23;;;;;;;21.45;5.95;;;23.00;42.30;;;;;;6302141;28;20135;-57
2020/12/02 15:13:24;;;;;;;11.05;5.32;;;23.00;42.30;;;;;;6276964;28;20489;-61
2020/12/02 15:16:26;;;;;;;27.73;5.80;;;23.10;42.40;;;;;;6292435;28;20031;-57
2020/12/02 15:19:27;;;;;;;11.90;5.85;;;23.30;41.90;;;;;;6277022;28;20028;-56
2020/12/02 15:22:28;;;;;;;19.30;5.68;;;23.30;41.80;;;;;;6293210;28;20024;-60
2020/12/02 15:25:29;;;;;;;23.20;13.27;;;23.20;41.80;;;;;;6294802;28;20593;-56
2020/12/02 15:28:32;;;;;;;27.92;16.77;;;22.80;38.70;;;;;;6292135;28;20435;-57
2020/12/02 15:31:33;;;;;;;33.50;15.95;;;22.40;36.90;;;;;;6292612;28;20153;-59
2020/12/02 15:34:33;;;;;;;19.27;11.70;;;22.50;37.90;;;;;;6284223;28;20036;-56
2020/12/02 15:38:13;;;;;;;17.63;10.38;;;22.50;38.60;;;;;;6290739;28;20051;-59
2020/12/02 15:41:40;;;;;;;17.73;10.05;;;22.50;39.00;;;;;;6268752;28;20393;-60
2020/12/02 15:44:50;;;;;;;18.63;10.65;;;22.70;39.10;;;;;;6282297;28;20127;-58
2020/12/02 15:47:53;;;;;;;21.95;10.38;;;22.80;39.10;;;;;;6281135;28;20396;-64
2020/12/02 15:51:04;;;;;;;17.65;10.38;;;22.80;39.70;;;;;;6292345;28;20029;-62
2020/12/02 15:54:20;;;;;;;28.88;10.07;;;22.90;40.00;;;;;;6279478;28;20051;-55
2020/12/02 15:57:29;;;;;;;;;;;23.20;39.40;;;;;;6275801;28;20025;-59
2020/12/02 16:00:31;;;;;;;16.27;9.32;;;23.30;39.50;;;;;;6295018;28;19905;-59
2020/12/02 16:03:32;;;;;;;17.75;9.05;;;23.40;39.60;;;;;;6283696;28;20384;-59
2020/12/02 16:06:39;;;;;;;19.33;8.95;;;23.30;40.00;;;;;;6301229;28;20032;-61